Terminal Aerodrome Forecast
Issued by NWS Newport/Morehead City, NC

Home | Current Version | Previous Version | Text Only | Print | Product List | Glossary On
Versions: 1 2 3 4 5 6 7 8 9 10 11 12 13 14 15 16 17 18 19 20
000
FTUS42 KMHX 051120
TAFEWN
TAF
KEWN 051120Z 0512/0612 04005KT 5SM BR SCT010 BKN035
     FM051300 04007KT P6SM SCT020 BKN035
     FM051800 04010KT P6SM VCTS SCT050CB
     FM060100 04005KT P6SM VCSH BKN040
     FM060600 03003KT 5SM BR SCT005 BKN015=

USA.gov is the U.S. government's official web portal to all federal, state and local government web resources and services.